Time;durP1;ratioP1;P1;durP2;ratioP2;P2;SDS_P1;SDS_P2;PMS_P1;PMS_P2;Temp;Humidity;BMP_temperature;BMP_pressure;BME280_temperature;BME280_humidity;BME280_pressure;Samples;Min_cycle;Max_cycle;Signal;HPM_P1;HPM_P2
2021/03/01 00:01:06;;;;;;;54.08;13.50;;;3.80;94.10;;;;;;5031021;28;20061;-71
2021/03/01 00:03:32;;;;;;;44.00;13.32;;;3.80;94.10;;;;;;5030245;28;20037;-71
2021/03/01 00:05:58;;;;;;;70.18;15.68;;;3.90;94.00;;;;;;5030581;28;20086;-71
2021/03/01 00:08:24;;;;;;;39.58;12.20;;;3.90;94.10;;;;;;5029182;28;20116;-71
2021/03/01 00:10:49;;;;;;;91.88;15.32;;;3.90;94.10;;;;;;5030763;28;20037;-71
2021/03/01 00:13:16;;;;;;;77.80;14.55;;;3.90;93.90;;;;;;5030169;28;20073;-71
2021/03/01 00:15:42;;;;;;;64.30;15.70;;;3.80;93.70;;;;;;5030420;28;20045;-71
2021/03/01 00:18:08;;;;;;;29.40;11.65;;;3.80;93.80;;;;;;5031029;28;20041;-71
2021/03/01 00:20:34;;;;;;;65.18;15.10;;;3.80;94.00;;;;;;5030481;28;20392;-71
2021/03/01 00:23:00;;;;;;;46.03;13.40;;;3.80;94.10;;;;;;5030080;28;20112;-71
2021/03/01 00:25:26;;;;;;;68.05;14.82;;;3.80;94.00;;;;;;5030131;28;20044;-71
2021/03/01 00:27:51;;;;;;;45.63;12.95;;;3.70;94.20;;;;;;5030490;28;20064;-71
2021/03/01 00:30:18;;;;;;;20.10;10.80;;;3.70;94.00;;;;;;5030720;28;20091;-71
2021/03/01 00:32:43;;;;;;;64.35;14.15;;;3.70;94.10;;;;;;5029858;28;20038;-71
2021/03/01 00:35:10;;;;;;;47.30;12.80;;;3.70;94.10;;;;;;5030091;28;20401;-71
2021/03/01 00:37:36;;;;;;;24.83;11.60;;;3.70;94.30;;;;;;5030142;28;20048;-71
2021/03/01 00:40:04;;;;;;;28.48;11.48;;;3.70;94.10;;;;;;5030025;28;20041;-71
2021/03/01 00:42:30;;;;;;;55.10;11.85;;;3.70;94.10;;;;;;5029855;28;20076;-71
2021/03/01 00:44:55;;;;;;;76.93;12.50;;;3.60;94.20;;;;;;5033172;28;20446;-71
2021/03/01 00:47:21;;;;;;;61.05;12.18;;;3.60;94.00;;;;;;5034045;28;20041;-71
2021/03/01 00:49:47;;;;;;;50.42;11.63;;;3.60;93.90;;;;;;5032219;28;20046;-71
2021/03/01 00:52:12;;;;;;;39.35;11.50;;;3.60;94.00;;;;;;5032530;28;20034;-71
2021/03/01 00:54:38;;;;;;;58.25;12.32;;;3.60;94.10;;;;;;5033229;28;20090;-71
2021/03/01 00:57:05;;;;;;;81.55;13.27;;;3.60;94.00;;;;;;5033677;28;20086;-71
2021/03/01 00:59:31;;;;;;;61.38;11.27;;;3.60;94.10;;;;;;5033756;28;20112;-71
2021/03/01 01:01:57;;;;;;;66.93;12.30;;;3.50;94.00;;;;;;5033931;28;20042;-71
2021/03/01 01:04:23;;;;;;;55.60;10.73;;;3.50;94.00;;;;;;5031509;28;20048;-71
2021/03/01 01:06:49;;;;;;;54.00;10.00;;;3.50;93.90;;;;;;5033765;28;20042;-71
2021/03/01 01:09:14;;;;;;;57.25;10.20;;;3.40;93.60;;;;;;5033062;28;20042;-71
2021/03/01 01:11:40;;;;;;;48.42;9.52;;;3.40;93.80;;;;;;5033603;28;20092;-71
2021/03/01 01:14:07;;;;;;;95.88;14.68;;;3.30;93.80;;;;;;5033303;28;20048;-71
2021/03/01 01:16:32;;;;;;;34.67;10.80;;;3.30;93.90;;;;;;5032033;28;20069;-71
2021/03/01 01:18:58;;;;;;;46.47;12.00;;;3.30;94.00;;;;;;5033565;28;20087;-71
2021/03/01 01:21:24;;;;;;;54.92;11.27;;;3.40;94.00;;;;;;5033400;28;20044;-71
2021/03/01 01:23:50;;;;;;;83.18;14.82;;;3.30;93.80;;;;;;5033163;28;20094;-71
2021/03/01 01:26:15;;;;;;;64.63;12.07;;;3.30;93.90;;;;;;5032792;28;20048;-71
2021/03/01 01:28:41;;;;;;;16.27;9.30;;;3.30;93.60;;;;;;5033332;28;20112;-71
2021/03/01 01:31:07;;;;;;;15.57;8.23;;;3.30;93.60;;;;;;5033515;28;20080;-71
2021/03/01 01:33:32;;;;;;;58.15;11.32;;;3.20;93.80;;;;;;5032762;28;20097;-71
2021/03/01 01:35:59;;;;;;;44.15;10.23;;;3.20;93.80;;;;;;5033372;28;20538;-71
2021/03/01 01:38:24;;;;;;;63.08;11.57;;;3.20;93.90;;;;;;5032762;28;20041;-71
2021/03/01 01:40:51;;;;;;;27.90;9.57;;;3.20;93.60;;;;;;5032735;28;20507;-71
2021/03/01 01:43:16;;;;;;;61.97;11.48;;;3.10;93.60;;;;;;5032592;28;20037;-71
2021/03/01 01:45:42;;;;;;;35.13;10.45;;;3.10;93.90;;;;;;5033105;28;20110;-71
2021/03/01 01:48:08;;;;;;;34.50;9.88;;;3.10;93.90;;;;;;5032642;28;20044;-71
2021/03/01 01:50:34;;;;;;;40.90;10.73;;;3.10;94.00;;;;;;5032941;28;20034;-71
2021/03/01 01:53:00;;;;;;;40.80;10.88;;;3.10;94.00;;;;;;5032288;28;20033;-71
2021/03/01 01:55:27;;;;;;;16.67;9.65;;;3.20;94.00;;;;;;5031032;28;20045;-71
2021/03/01 01:57:53;;;;;;;14.48;8.23;;;3.30;94.00;;;;;;5033159;28;20533;-71
2021/03/01 02:03:06;;;;;;;17.33;8.95;;;3.40;93.80;;;;;;5032361;28;20083;-71
2021/03/01 02:05:32;;;;;;;35.38;10.77;;;3.40;93.60;;;;;;5032558;28;20042;-71
2021/03/01 02:08:05;;;;;;;30.38;10.18;;;3.40;93.60;;;;;;5032546;28;20038;-71
2021/03/01 02:10:48;;;;;;;16.63;9.77;;;3.40;93.70;;;;;;5032557;28;20045;-71
2021/03/01 02:13:30;;;;;;;33.00;10.55;;;3.50;93.70;;;;;;5031651;28;20049;-71
2021/03/01 02:16:06;;;;;;;66.78;15.32;;;3.40;93.60;;;;;;5032532;28;20053;-71
2021/03/01 02:18:32;;;;;;;68.00;15.73;;;3.40;93.60;;;;;;5033033;28;20389;-71
2021/03/01 02:21:07;;;;;;;41.60;11.90;;;3.40;93.60;;;;;;5032659;28;20045;-71
2021/03/01 02:23:33;;;;;;;37.70;12.38;;;3.40;93.60;;;;;;5032191;28;20034;-71
2021/03/01 02:26:02;;;;;;;64.75;14.48;;;3.30;93.70;;;;;;5032070;28;20430;-71
2021/03/01 02:28:33;;;;;;;46.72;13.88;;;3.30;93.80;;;;;;5032657;28;20112;-71
2021/03/01 02:31:01;;;;;;;38.88;13.45;;;3.30;93.80;;;;;;5032088;28;20038;-71
2021/03/01 02:33:38;;;;;;;46.92;15.00;;;3.30;93.90;;;;;;5032059;28;20508;-71
2021/03/01 02:36:31;;;;;;;27.83;12.27;;;3.30;93.90;;;;;;5032611;28;20057;-71
2021/03/01 02:38:59;;;;;;;94.30;18.17;;;3.30;93.90;;;;;;5032662;28;20034;-71
2021/03/01 02:41:26;;;;;;;21.27;11.75;;;3.30;93.90;;;;;;5032287;28;20091;-71
2021/03/01 02:43:53;;;;;;;27.15;12.90;;;3.40;94.10;;;;;;5030552;28;20034;-71
2021/03/01 02:46:19;;;;;;;20.98;11.65;;;3.50;94.00;;;;;;5031981;28;20037;-71
2021/03/01 02:48:47;;;;;;;24.95;12.95;;;3.50;93.80;;;;;;5031999;28;20116;-71
2021/03/01 02:51:13;;;;;;;37.78;14.57;;;3.60;93.70;;;;;;5032199;28;20045;-71
2021/03/01 02:53:40;;;;;;;22.98;12.57;;;3.60;93.60;;;;;;5030491;28;20041;-71
2021/03/01 02:56:08;;;;;;;21.95;12.13;;;3.60;93.50;;;;;;5031511;28;20098;-71
2021/03/01 02:58:38;;;;;;;19.50;11.20;;;3.70;93.50;;;;;;5032323;28;20040;-71
2021/03/01 03:01:06;;;;;;;25.13;12.18;;;3.70;93.50;;;;;;5030565;28;20045;-71
2021/03/01 03:03:33;;;;;;;20.98;11.95;;;3.70;93.50;;;;;;5031337;28;20033;-71
2021/03/01 03:05:59;;;;;;;22.55;12.15;;;3.80;93.50;;;;;;5031420;28;20041;-71
2021/03/01 03:08:29;;;;;;;22.90;12.27;;;3.80;93.30;;;;;;5031528;28;20116;-71
2021/03/01 03:10:55;;;;;;;25.42;13.10;;;3.80;93.20;;;;;;5031581;28;20034;-71
2021/03/01 03:13:22;;;;;;;23.17;13.80;;;3.80;93.30;;;;;;5031469;28;20537;-71
2021/03/01 03:15:58;;;;;;;26.48;13.57;;;3.80;93.30;;;;;;5031529;28;20055;-71
2021/03/01 03:18:26;;;;;;;26.35;13.48;;;3.80;93.20;;;;;;5031754;28;20044;-71
2021/03/01 03:20:52;;;;;;;21.83;12.57;;;3.80;93.30;;;;;;5031790;28;20056;-71
2021/03/01 03:23:18;;;;;;;27.15;13.20;;;3.90;93.20;;;;;;5031206;28;20045;-71
2021/03/01 03:25:44;;;;;;;24.13;12.25;;;3.90;93.30;;;;;;5031268;28;20042;-71
2021/03/01 03:28:09;;;;;;;25.02;12.55;;;3.90;93.20;;;;;;5030035;28;20481;-71
2021/03/01 03:30:35;;;;;;;27.00;13.93;;;3.80;93.20;;;;;;5031375;28;20043;-71
2021/03/01 03:33:03;;;;;;;25.02;12.70;;;3.80;93.40;;;;;;5030879;28;20432;-71
2021/03/01 03:35:29;;;;;;;25.65;12.32;;;3.70;93.60;;;;;;5030516;28;20123;-71
2021/03/01 03:38:03;;;;;;;23.02;13.18;;;3.80;93.50;;;;;;5031767;28;20048;-71
2021/03/01 03:40:31;;;;;;;29.05;13.15;;;3.80;93.50;;;;;;5031226;28;20120;-71
2021/03/01 03:42:57;;;;;;;24.25;11.82;;;3.80;93.50;;;;;;5031357;28;20458;-71
2021/03/01 03:45:25;;;;;;;19.70;11.90;;;3.90;93.40;;;;;;5030015;28;20090;-71
2021/03/01 03:47:53;;;;;;;19.05;10.75;;;3.90;93.30;;;;;;5031159;28;20034;-71
2021/03/01 03:50:22;;;;;;;21.98;12.65;;;3.80;93.30;;;;;;5031552;28;20125;-71
2021/03/01 03:52:53;;;;;;;19.08;11.68;;;3.90;93.30;;;;;;5031074;28;20041;-71
2021/03/01 03:55:20;;;;;;;22.45;12.38;;;3.80;93.30;;;;;;5031362;28;20049;-71
2021/03/01 03:58:00;;;;;;;22.38;11.50;;;3.80;93.40;;;;;;5030962;28;20034;-71
2021/03/01 04:00:32;;;;;;;21.52;12.68;;;3.70;93.30;;;;;;5030710;28;20396;-71
2021/03/01 04:03:07;;;;;;;20.10;13.23;;;3.80;93.40;;;;;;5029177;28;20038;-71
2021/03/01 04:05:33;;;;;;;20.85;11.73;;;3.80;93.40;;;;;;5030385;28;20041;-71
2021/03/01 04:08:00;;;;;;;23.13;12.88;;;3.70;93.50;;;;;;5030509;28;20469;-71
2021/03/01 04:10:30;;;;;;;20.17;11.50;;;3.70;93.50;;;;;;5030497;28;20482;-71
2021/03/01 04:12:59;;;;;;;23.00;12.20;;;3.70;93.60;;;;;;5030526;28;20038;-71
2021/03/01 04:15:27;;;;;;;26.95;14.43;;;3.60;93.60;;;;;;5030970;28;20055;-71
2021/03/01 04:17:54;;;;;;;26.30;15.15;;;3.60;93.70;;;;;;5029989;28;20068;-71
2021/03/01 04:20:22;;;;;;;23.75;13.40;;;3.60;93.70;;;;;;5030983;28;20582;-71
2021/03/01 04:22:49;;;;;;;25.42;14.43;;;3.60;93.80;;;;;;5030119;28;20450;-71
2021/03/01 04:25:16;;;;;;;27.35;14.60;;;3.60;93.70;;;;;;5030259;28;20049;-71
2021/03/01 04:27:42;;;;;;;31.60;16.17;;;3.60;93.70;;;;;;5030267;28;20114;-71
2021/03/01 04:30:09;;;;;;;31.02;16.63;;;3.60;93.80;;;;;;5030324;28;20112;-71
2021/03/01 04:32:37;;;;;;;32.95;15.60;;;3.50;93.80;;;;;;5030337;28;20246;-71
2021/03/01 04:35:07;;;;;;;32.95;15.07;;;3.60;93.80;;;;;;5030113;28;20129;-71
2021/03/01 04:37:33;;;;;;;30.65;14.98;;;3.50;93.80;;;;;;5030361;28;20044;-71
2021/03/01 04:39:59;;;;;;;27.38;13.32;;;3.50;93.90;;;;;;5030182;28;20049;-71
2021/03/01 04:42:28;;;;;;;28.30;14.40;;;3.50;93.80;;;;;;5030285;28;20038;-71
2021/03/01 04:44:55;;;;;;;27.15;14.20;;;3.50;93.90;;;;;;5030449;28;20033;-71
2021/03/01 04:47:22;;;;;;;31.15;15.40;;;3.50;93.90;;;;;;5030121;28;20045;-71
2021/03/01 04:49:48;;;;;;;29.15;15.07;;;3.50;93.90;;;;;;5030002;28;20038;-71
2021/03/01 04:52:15;;;;;;;28.40;14.48;;;3.50;94.20;;;;;;5030427;28;20038;-71
2021/03/01 04:54:41;;;;;;;32.28;15.48;;;3.50;94.10;;;;;;5029010;28;20112;-71
2021/03/01 04:57:08;;;;;;;30.67;15.55;;;3.40;94.10;;;;;;5030502;28;20090;-71
2021/03/01 04:59:34;;;;;;;23.13;13.10;;;3.40;94.10;;;;;;5030556;28;20037;-71
2021/03/01 05:02:00;;;;;;;24.15;13.07;;;3.50;94.20;;;;;;5029349;28;20061;-71
2021/03/01 05:04:27;;;;;;;23.48;13.75;;;3.50;94.10;;;;;;5029720;28;20033;-71
2021/03/01 05:06:56;;;;;;;26.25;14.50;;;3.60;94.20;;;;;;5029939;28;20042;-71
2021/03/01 05:09:23;;;;;;;29.25;15.27;;;3.60;94.10;;;;;;5030330;28;20037;-71
2021/03/01 05:11:49;;;;;;;27.88;14.70;;;3.70;94.10;;;;;;5030489;28;20041;-71
2021/03/01 05:14:15;;;;;;;28.05;14.38;;;3.80;93.90;;;;;;5029490;28;20421;-71
2021/03/01 05:16:41;;;;;;;26.63;14.13;;;3.80;93.80;;;;;;5029711;28;20037;-70
2021/03/01 05:19:07;;;;;;;22.42;13.27;;;3.90;93.70;;;;;;5029928;28;20046;-71
2021/03/01 05:21:33;;;;;;;26.25;13.65;;;3.90;93.40;;;;;;5029962;28;20379;-71
2021/03/01 05:23:58;;;;;;;29.38;14.68;;;4.00;93.30;;;;;;5029815;28;20069;-71
2021/03/01 05:26:24;;;;;;;27.17;13.85;;;3.90;93.30;;;;;;5029470;28;20045;-70
2021/03/01 05:28:50;;;;;;;29.90;14.65;;;3.80;93.50;;;;;;5029574;28;20046;-71
2021/03/01 05:31:16;;;;;;;24.38;13.48;;;3.70;93.70;;;;;;5033571;28;20116;-71
2021/03/01 05:33:42;;;;;;;21.98;12.02;;;3.70;93.80;;;;;;5032726;28;20469;-71
2021/03/01 05:36:08;;;;;;;33.20;14.65;;;3.80;93.70;;;;;;5033007;28;20065;-71
2021/03/01 05:38:34;;;;;;;32.55;15.57;;;3.80;93.90;;;;;;5033417;28;20037;-71
2021/03/01 05:41:02;;;;;;;25.00;13.45;;;3.80;93.60;;;;;;5032840;28;20049;-71
2021/03/01 05:43:29;;;;;;;26.33;13.60;;;3.90;93.70;;;;;;5032448;28;20485;-71
2021/03/01 05:45:59;;;;;;;27.25;14.23;;;4.00;93.50;;;;;;5032634;28;20094;-71
2021/03/01 05:48:26;;;;;;;24.20;12.52;;;4.00;93.30;;;;;;5033315;28;20538;-71
2021/03/01 05:50:58;;;;;;;20.30;11.75;;;4.00;93.40;;;;;;5033131;28;20073;-71
2021/03/01 05:53:32;;;;;;;21.38;12.88;;;3.90;93.50;;;;;;5032408;28;20034;-71
2021/03/01 05:55:59;;;;;;;24.33;12.77;;;3.90;93.50;;;;;;5031587;28;20489;-71
2021/03/01 05:58:26;;;;;;;31.58;15.10;;;4.00;93.60;;;;;;5032633;28;20064;-71
2021/03/01 06:00:58;;;;;;;30.67;15.20;;;3.90;93.50;;;;;;5033038;28;20042;-71
2021/03/01 06:03:25;;;;;;;35.65;16.13;;;3.80;93.70;;;;;;5032442;28;20042;-71
2021/03/01 06:05:52;;;;;;;23.40;12.85;;;3.80;93.80;;;;;;5031645;28;20033;-71
2021/03/01 06:08:19;;;;;;;34.28;15.73;;;3.80;93.90;;;;;;5032768;28;20116;-71
2021/03/01 06:10:44;;;;;;;30.60;14.65;;;3.80;93.90;;;;;;5032426;28;20037;-71
2021/03/01 06:13:10;;;;;;;21.83;12.10;;;3.90;94.10;;;;;;5032118;28;20041;-71
2021/03/01 06:15:39;;;;;;;41.33;16.92;;;4.00;93.80;;;;;;5032549;28;20472;-71
2021/03/01 06:18:09;;;;;;;29.75;13.52;;;4.00;93.70;;;;;;5032625;28;20462;-71
2021/03/01 06:20:35;;;;;;;35.47;14.57;;;4.00;93.90;;;;;;5032267;28;20564;-71
2021/03/01 06:23:02;;;;;;;27.65;12.70;;;4.00;93.90;;;;;;5031217;28;20086;-71
2021/03/01 06:25:27;;;;;;;32.03;13.52;;;4.00;93.80;;;;;;5032671;28;20377;-71
2021/03/01 06:27:56;;;;;;;38.50;14.60;;;4.10;94.00;;;;;;5032227;28;20048;-71
2021/03/01 06:30:30;;;;;;;28.80;12.38;;;4.00;93.80;;;;;;5032219;28;20037;-71
2021/03/01 06:33:03;;;;;;;28.58;11.50;;;4.10;94.10;;;;;;5031662;28;20052;-71
2021/03/01 06:35:35;;;;;;;37.15;14.18;;;4.10;93.90;;;;;;5032228;28;20038;-71
2021/03/01 06:38:36;;;;;;;41.55;14.20;;;4.10;94.00;;;;;;5032366;28;20037;-71
2021/03/01 06:41:16;;;;;;;26.50;11.55;;;4.10;94.10;;;;;;5031662;28;20167;-71
2021/03/01 06:43:55;;;;;;;41.70;12.02;;;4.10;94.10;;;;;;5031618;28;20037;-71
2021/03/01 06:46:31;;;;;;;24.20;9.93;;;4.10;94.30;;;;;;5032276;28;20061;-71
2021/03/01 06:49:15;;;;;;;23.00;9.82;;;4.10;94.20;;;;;;5031937;28;20421;-71
2021/03/01 06:51:41;;;;;;;24.38;10.27;;;4.20;94.10;;;;;;5032300;28;20037;-71
2021/03/01 06:54:06;;;;;;;34.22;12.57;;;4.20;94.30;;;;;;5031676;28;20037;-71
2021/03/01 06:56:40;;;;;;;23.13;10.25;;;4.20;94.30;;;;;;5031556;28;20522;-70
2021/03/01 06:59:14;;;;;;;26.15;10.80;;;4.30;94.30;;;;;;5031926;28;20048;-71
2021/03/01 07:01:45;;;;;;;23.80;9.45;;;4.30;94.40;;;;;;5031683;28;20117;-71
2021/03/01 07:04:18;;;;;;;23.10;10.52;;;4.30;94.40;;;;;;5031468;28;20485;-71
2021/03/01 07:06:44;;;;;;;22.15;10.60;;;4.40;94.40;;;;;;5031639;28;20052;-71
2021/03/01 07:09:17;;;;;;;21.65;10.05;;;4.40;94.40;;;;;;5031693;28;20038;-71
2021/03/01 07:11:44;;;;;;;16.45;8.52;;;4.50;94.30;;;;;;5031945;28;20030;-71
2021/03/01 07:14:16;;;;;;;18.45;7.72;;;4.50;94.40;;;;;;5031396;28;20473;-71
2021/03/01 07:16:46;;;;;;;22.42;8.05;;;4.50;94.30;;;;;;5030448;28;20046;-71
2021/03/01 07:19:35;;;;;;;24.02;9.40;;;4.50;94.30;;;;;;5031729;28;20108;-71
2021/03/01 07:22:03;;;;;;;12.27;6.50;;;4.60;94.30;;;;;;5031379;28;20041;-71
2021/03/01 07:24:30;;;;;;;17.15;6.63;;;4.60;94.40;;;;;;5031218;28;20461;-71
2021/03/01 07:26:58;;;;;;;15.52;5.45;;;4.60;94.60;;;;;;5030956;28;20072;-71
2021/03/01 07:29:25;;;;;;;11.50;5.35;;;4.60;94.50;;;;;;5030535;28;20033;-71
2021/03/01 07:32:01;;;;;;;13.35;4.90;;;4.70;94.40;;;;;;5031239;28;20037;-71
2021/03/01 07:34:27;;;;;;;27.95;5.80;;;4.70;94.40;;;;;;5030892;28;20038;-71
2021/03/01 07:36:54;;;;;;;15.38;4.97;;;4.70;94.50;;;;;;5031109;28;20166;-71
2021/03/01 07:39:21;;;;;;;10.50;5.05;;;4.70;94.50;;;;;;5031471;28;20044;-72
2021/03/01 07:41:49;;;;;;;14.68;4.93;;;4.70;94.40;;;;;;5031557;28;20053;-71
2021/03/01 07:44:21;;;;;;;14.93;4.53;;;4.80;94.40;;;;;;5031046;28;20040;-70
2021/03/01 07:46:47;;;;;;;15.27;4.57;;;4.80;94.40;;;;;;5031494;28;20076;-71
2021/03/01 07:49:49;;;;;;;15.13;4.85;;;4.80;94.40;;;;;;5031127;28;20029;-71
2021/03/01 07:52:23;;;;;;;13.70;5.57;;;4.90;94.50;;;;;;5052582;28;20052;-71
2021/03/01 07:54:59;;;;;;;10.57;5.13;;;4.90;94.60;;;;;;5030459;28;20064;-72
2021/03/01 07:57:27;;;;;;;10.52;5.00;;;4.90;94.60;;;;;;5030991;28;20037;-72
2021/03/01 07:59:53;;;;;;;9.13;4.35;;;5.00;94.50;;;;;;5030338;28;20150;-72
2021/03/01 08:02:31;;;;;;;13.60;5.30;;;5.00;94.40;;;;;;5031185;28;20040;-73
2021/03/01 08:04:58;;;;;;;10.98;4.95;;;5.10;94.40;;;;;;5030432;28;20037;-72
2021/03/01 08:07:38;;;;;;;11.98;5.30;;;5.10;94.20;;;;;;5030725;28;20053;-72
2021/03/01 08:10:06;;;;;;;15.23;4.95;;;5.10;94.60;;;;;;5031131;28;20120;-72
2021/03/01 08:12:32;;;;;;;19.58;6.07;;;5.10;94.20;;;;;;5030635;28;20034;-72
2021/03/01 08:15:03;;;;;;;14.80;5.50;;;5.00;94.20;;;;;;5031103;28;20154;-73
2021/03/01 08:17:30;;;;;;;17.25;6.35;;;5.10;94.10;;;;;;5031176;28;20083;-73
2021/03/01 08:20:12;;;;;;;12.55;5.97;;;5.10;94.10;;;;;;5030425;28;20478;-72
2021/03/01 08:23:05;;;;;;;13.48;5.30;;;5.10;94.10;;;;;;5030328;28;20041;-72
2021/03/01 08:25:49;;;;;;;22.15;7.95;;;5.10;94.30;;;;;;5030639;28;20070;-72
2021/03/01 08:28:23;;;;;;;12.23;5.40;;;5.10;94.20;;;;;;5030719;28;20041;-73
2021/03/01 08:30:56;;;;;;;13.88;6.63;;;5.20;94.40;;;;;;5030924;28;20040;-72
2021/03/01 08:33:26;;;;;;;16.02;6.30;;;5.20;94.20;;;;;;5030145;28;20034;-73
2021/03/01 08:35:54;;;;;;;12.05;5.30;;;5.20;94.20;;;;;;5030443;28;20044;-73
2021/03/01 08:38:41;;;;;;;13.15;5.80;;;5.20;94.10;;;;;;5030289;28;20485;-73
2021/03/01 08:41:11;;;;;;;10.93;5.00;;;5.30;94.00;;;;;;5030464;28;20116;-73
2021/03/01 08:43:38;;;;;;;16.20;5.90;;;5.30;94.10;;;;;;5030358;28;20045;-73
2021/03/01 08:46:07;;;;;;;14.77;6.30;;;5.30;94.10;;;;;;5030147;28;20042;-72
2021/03/01 08:48:39;;;;;;;13.20;6.30;;;5.30;94.10;;;;;;5030774;28;20441;-73
2021/03/01 08:51:05;;;;;;;15.05;6.40;;;5.40;94.00;;;;;;5030819;28;20052;-73
2021/03/01 08:53:31;;;;;;;15.63;6.95;;;5.30;94.00;;;;;;5029990;28;20082;-73
2021/03/01 08:55:58;;;;;;;16.15;7.70;;;5.40;93.80;;;;;;5030615;28;20049;-73
2021/03/01 08:58:29;;;;;;;20.85;10.05;;;5.30;93.80;;;;;;5030344;28;20474;-73
2021/03/01 09:00:57;;;;;;;16.77;8.05;;;5.30;94.00;;;;;;5030324;28;20034;-73
2021/03/01 09:03:28;;;;;;;22.38;9.85;;;5.40;93.80;;;;;;5029757;28;20070;-73
2021/03/01 09:06:02;;;;;;;16.42;8.18;;;5.30;93.90;;;;;;5032874;28;20042;-73
2021/03/01 09:08:30;;;;;;;16.45;7.90;;;5.40;93.60;;;;;;5032446;28;20413;-73
2021/03/01 09:10:57;;;;;;;23.27;9.55;;;5.40;93.50;;;;;;5034173;28;20042;-73
2021/03/01 09:13:24;;;;;;;21.38;9.27;;;5.30;93.70;;;;;;5033407;28;20053;-73
2021/03/01 09:15:51;;;;;;;19.27;8.68;;;5.30;93.70;;;;;;5033323;28;20553;-72
2021/03/01 09:18:17;;;;;;;16.75;8.90;;;5.40;93.70;;;;;;5033964;28;20041;-73
2021/03/01 09:21:03;;;;;;;15.60;6.95;;;5.40;93.70;;;;;;5032307;28;20049;-73
2021/03/01 09:23:37;;;;;;;15.82;8.00;;;5.40;93.70;;;;;;5033419;28;20040;-72
2021/03/01 09:26:03;;;;;;;;;;;5.40;93.50;;;;;;5033016;28;20041;-70
2021/03/01 09:28:31;;;;;;;21.10;9.65;;;5.40;92.90;;;;;;5032658;28;19924;-72
2021/03/01 09:31:02;;;;;;;18.63;8.25;;;5.40;93.10;;;;;;5033522;28;20037;-72
2021/03/01 09:33:29;;;;;;;22.58;8.60;;;5.40;93.20;;;;;;5033098;28;20070;-72
2021/03/01 09:35:55;;;;;;;19.65;9.27;;;5.40;93.30;;;;;;5033130;28;20068;-72
2021/03/01 09:38:21;;;;;;;15.35;7.50;;;5.40;93.40;;;;;;5033490;28;20030;-72
2021/03/01 09:40:54;;;;;;;11.55;6.43;;;5.40;93.30;;;;;;5032804;28;20117;-72
2021/03/01 09:43:21;;;;;;;10.20;5.03;;;5.40;93.10;;;;;;5033176;28;20049;-71
2021/03/01 09:45:47;;;;;;;10.63;4.35;;;5.50;93.20;;;;;;5032892;28;20041;-71
2021/03/01 09:48:13;;;;;;;8.30;3.75;;;5.50;92.70;;;;;;5033110;28;20034;-72
2021/03/01 09:50:39;;;;;;;9.85;3.65;;;5.60;92.70;;;;;;5032858;28;20037;-72
2021/03/01 09:53:05;;;;;;;11.57;4.90;;;5.60;92.60;;;;;;5031490;28;20402;-72
2021/03/01 09:55:32;;;;;;;7.70;3.50;;;5.50;92.40;;;;;;5033087;28;20037;-72
2021/03/01 09:57:57;;;;;;;8.52;4.28;;;5.60;92.20;;;;;;5032627;28;20115;-72
2021/03/01 10:00:32;;;;;;;9.48;4.18;;;5.60;92.20;;;;;;5032795;28;20062;-72
2021/03/01 10:03:00;;;;;;;9.57;4.35;;;5.60;92.20;;;;;;5032328;28;20041;-72
2021/03/01 10:05:27;;;;;;;7.20;4.72;;;5.60;92.20;;;;;;5032683;28;20136;-72
2021/03/01 10:07:58;;;;;;;11.55;3.65;;;5.60;92.20;;;;;;5032491;28;20061;-72
2021/03/01 10:10:31;;;;;;;7.80;3.35;;;5.50;92.20;;;;;;5032761;28;20041;-72
2021/03/01 10:12:57;;;;;;;8.93;4.13;;;5.50;92.10;;;;;;5032509;28;20041;-72
2021/03/01 10:15:22;;;;;;;9.13;4.32;;;5.60;92.00;;;;;;5031911;28;20125;-72
2021/03/01 10:18:12;;;;;;;9.93;4.20;;;5.50;92.30;;;;;;5031240;28;20113;-72
2021/03/01 10:21:00;;;;;;;8.88;4.20;;;5.60;92.30;;;;;;5032592;28;20409;-72
2021/03/01 10:23:31;;;;;;;13.70;4.05;;;5.70;92.10;;;;;;5032580;28;20045;-72
2021/03/01 10:26:16;;;;;;;10.88;4.03;;;5.80;91.90;;;;;;5032567;28;20038;-72
2021/03/01 10:28:43;;;;;;;7.75;4.68;;;5.90;91.60;;;;;;5032455;28;20037;-72
2021/03/01 10:31:12;;;;;;;9.95;4.65;;;5.90;91.30;;;;;;5032174;28;20079;-72
2021/03/01 10:33:56;;;;;;;9.25;5.20;;;5.90;91.10;;;;;;5032188;28;20065;-72
2021/03/01 10:36:34;;;;;;;8.18;3.88;;;5.90;91.00;;;;;;5032192;28;20106;-73
2021/03/01 10:39:15;;;;;;;8.55;4.35;;;5.70;90.90;;;;;;5032937;28;20042;-73
2021/03/01 10:41:45;;;;;;;7.25;3.95;;;5.70;91.00;;;;;;5026382;28;20034;-71
2021/03/01 10:44:12;;;;;;;8.35;4.22;;;5.70;90.90;;;;;;5012009;28;20438;-71
2021/03/01 10:46:45;;;;;;;7.22;4.60;;;5.90;90.50;;;;;;5012318;28;20042;-71
2021/03/01 10:49:17;;;;;;;5.90;4.05;;;5.90;90.70;;;;;;5012352;28;20046;-71
2021/03/01 10:51:43;;;;;;;7.35;4.43;;;5.90;90.80;;;;;;5012169;28;20049;-71
2021/03/01 10:54:10;;;;;;;9.43;5.07;;;5.90;90.90;;;;;;5011830;28;20042;-73
2021/03/01 10:56:35;;;;;;;9.45;4.38;;;6.00;90.80;;;;;;5011977;28;20038;-69
2021/03/01 10:59:04;;;;;;;9.43;4.75;;;6.10;90.70;;;;;;5012024;28;20574;-73
2021/03/01 11:01:34;;;;;;;7.65;4.40;;;6.00;90.80;;;;;;5011743;28;20158;-73
2021/03/01 11:04:00;;;;;;;8.35;3.97;;;6.10;90.60;;;;;;5011691;28;20420;-73
2021/03/01 11:06:26;;;;;;;7.35;3.67;;;6.10;90.70;;;;;;5012502;28;20061;-73
2021/03/01 11:08:51;;;;;;;5.30;3.25;;;6.10;90.40;;;;;;5012211;28;20454;-74
2021/03/01 11:11:17;;;;;;;6.53;3.65;;;6.10;89.90;;;;;;5012306;28;20045;-74
2021/03/01 11:13:43;;;;;;;6.45;3.63;;;6.00;89.60;;;;;;5011988;28;20045;-74
2021/03/01 11:16:08;;;;;;;5.18;3.05;;;6.00;89.80;;;;;;5012021;28;20109;-74
2021/03/01 11:18:34;;;;;;;6.43;4.07;;;6.00;90.30;;;;;;5011775;28;20038;-73
2021/03/01 11:21:00;;;;;;;5.60;3.58;;;6.00;90.30;;;;;;5011770;28;20037;-74
2021/03/01 11:23:26;;;;;;;8.60;4.43;;;6.10;89.70;;;;;;5011691;28;20042;-74
2021/03/01 11:25:51;;;;;;;9.60;5.03;;;6.10;89.30;;;;;;5011231;28;20049;-73
2021/03/01 11:28:20;;;;;;;6.25;4.47;;;6.20;89.20;;;;;;5011892;28;20045;-73
2021/03/01 11:30:47;;;;;;;8.65;5.35;;;6.10;88.80;;;;;;5010786;28;20034;-74
2021/03/01 11:33:12;;;;;;;7.20;4.32;;;6.20;87.90;;;;;;5011537;28;20042;-74
2021/03/01 11:35:38;;;;;;;14.85;4.82;;;6.20;87.50;;;;;;5011651;28;20492;-74
2021/03/01 11:38:04;;;;;;;9.38;4.57;;;6.10;87.80;;;;;;5011218;28;20426;-74
2021/03/01 11:40:30;;;;;;;11.18;5.18;;;6.10;87.90;;;;;;5011451;28;20045;-73
2021/03/01 11:42:56;;;;;;;11.60;5.47;;;6.30;87.80;;;;;;5011457;28;20034;-74
2021/03/01 11:45:22;;;;;;;10.55;5.88;;;6.10;88.20;;;;;;5011517;28;20087;-74
2021/03/01 11:47:48;;;;;;;14.93;5.50;;;6.10;88.60;;;;;;5010894;28;20042;-75
2021/03/01 11:50:14;;;;;;;10.18;5.47;;;6.20;88.50;;;;;;5011277;28;20061;-73
2021/03/01 11:52:40;;;;;;;10.73;4.78;;;6.20;87.80;;;;;;5011271;28;20042;-73
2021/03/01 11:55:06;;;;;;;10.60;5.80;;;6.30;87.10;;;;;;5011418;28;20053;-73
2021/03/01 11:57:31;;;;;;;11.93;5.80;;;6.30;86.80;;;;;;5011035;28;20066;-73
2021/03/01 11:59:57;;;;;;;13.38;6.78;;;6.40;86.20;;;;;;5011225;28;20049;-74
2021/03/01 12:02:23;;;;;;;11.68;5.90;;;6.40;86.00;;;;;;5010799;28;20054;-74
2021/03/01 12:04:48;;;;;;;10.52;5.85;;;6.40;85.60;;;;;;5010630;28;20501;-74
2021/03/01 12:07:14;;;;;;;10.63;6.25;;;6.50;85.40;;;;;;5010951;28;20046;-75
2021/03/01 12:09:39;;;;;;;12.13;6.38;;;6.70;84.30;;;;;;5011179;28;20083;-73
2021/03/01 12:12:05;;;;;;;11.52;6.55;;;6.60;84.70;;;;;;5011210;28;20045;-73
2021/03/01 12:14:31;;;;;;;12.95;6.68;;;6.60;85.30;;;;;;5010586;28;20042;-73
2021/03/01 12:16:56;;;;;;;15.10;6.70;;;6.70;85.10;;;;;;5011438;28;20095;-73
2021/03/01 12:19:22;;;;;;;15.10;7.47;;;6.70;85.10;;;;;;5011204;28;20038;-73
2021/03/01 12:21:48;;;;;;;12.48;7.32;;;6.80;83.30;;;;;;5011188;28;20086;-73
2021/03/01 12:24:14;;;;;;;13.13;6.05;;;6.80;83.60;;;;;;5010629;28;20117;-73
2021/03/01 12:26:41;;;;;;;13.30;6.38;;;6.80;82.70;;;;;;5010844;28;20113;-73
2021/03/01 12:29:08;;;;;;;13.82;6.45;;;7.00;82.70;;;;;;5011538;28;20042;-73
2021/03/01 12:31:34;;;;;;;10.85;5.50;;;7.00;83.00;;;;;;5010850;28;20478;-73
2021/03/01 12:33:59;;;;;;;13.85;7.10;;;7.00;83.40;;;;;;5010552;28;20116;-73
2021/03/01 12:36:25;;;;;;;15.13;7.43;;;7.10;83.50;;;;;;5010372;28;20046;-73
2021/03/01 12:38:51;;;;;;;13.68;7.63;;;7.20;83.20;;;;;;5009814;28;20076;-73
2021/03/01 12:41:16;;;;;;;12.73;6.32;;;7.10;82.60;;;;;;5010299;28;20468;-73
2021/03/01 12:43:42;;;;;;;10.93;5.57;;;7.10;82.70;;;;;;5010157;28;20038;-74
2021/03/01 12:46:08;;;;;;;10.20;6.85;;;7.20;82.70;;;;;;5010310;28;20065;-73
2021/03/01 12:48:33;;;;;;;10.65;5.68;;;7.20;82.50;;;;;;5011035;28;20042;-73
2021/03/01 12:50:59;;;;;;;12.48;5.30;;;7.20;82.20;;;;;;5010320;28;20038;-73
2021/03/01 12:53:25;;;;;;;12.70;6.32;;;7.20;82.10;;;;;;5010109;28;20417;-73